AirNav   Air Wisconsin Up To $57,000 Bonus
 
 1709 users online  

84WA D and B Airpark
Elma, Washington, USA

GOING TO ELMA?


FAA INFORMATION EFFECTIVE 04 NOVEMBER 2021

Location

FAA Identifier: 84WA
Lat/Long: 46-58-22.3470N 123-23-03.5640W
46-58.372450N 123-23.059400W
46.9728742,-123.3843233
(estimated)
Elevation: 55 ft. / 17 m (estimated)
Variation: 20E (1985)
From city: 3 miles SE of ELMA, WA
Time zone: UTC -7 (UTC -8 during Standard Time)
Zip code: 98541

Airport Operations

Airport use: Private use. Permission required prior to landing
Activation date: 06/1979
Control tower: no
ARTCC: SEATTLE CENTER
FSS: SEATTLE FLIGHT SERVICE STATION
Attendance: UNATNDD
Wind indicator: yes
Segmented circle: no

Airport Communications

WX ASOS at SHN (18 nm NE): 119.275 (360 426-6332)
WX ASOS at OLM (20 nm E): 135.725 (360-754-0781)

Nearby radio navigation aids

VOR radial/distance  VOR name  Freq  Var
OLMr251/19.8OLYMPIA VORTAC113.4019E
HQMr068/31.4HOQUIAM VORTAC117.7019E

Airport Services

Airframe service: MINOR
Powerplant service: MINOR

Runway Information

Runway 11/29

Dimensions: 1800 x 50 ft. / 549 x 15 m
Surface: turf
RUNWAY 11  RUNWAY 29
Traffic pattern: leftleft
Obstructions: plinesnone

Airport Ownership and Management from official FAA records

Ownership: Privately-owned
Owner: RICHARD G CABE
289 SOUTH BANK ROAD
ELMA, WA 98541
Phone 206-482-3494
Manager: RICHARD G CABE
289 SOUTH BANK ROAD
ELMA, WA 98541
Phone 206-482-3494

Airport Operational Statistics

Aircraft based on the field: 5
Single engine airplanes: 5
    

Additional Remarks

FOR CD CTC SEATTLE ARTCC AT 253-351-3694.

Instrument Procedures

There are no published instrument procedures at 84WA.

Some nearby airports with instrument procedures:

KSHN - Sanderson Field Airport (18 nm NE)
KOLM - Olympia Regional Airport (20 nm E)
KHQM - Bowerman Airport (23 nm W)
KCLS - Chehalis-Centralia Airport (24 nm SE)
KGRF - Gray Army Airfield (Joint Base Lewis-McChord) (33 nm E)
 
Loc | Ops | Rwys | IFR | FBO | Links
Com | Nav | Svcs | Stats | Notes
Area around 84WA (D and B Airpark)
 
Road maps at: MapQuest Bing Google
 
Aerial photo
No photo
 
Sectional chart

 
Airport distance calculator
Flying to D and B Airpark? Find the distance to fly.

From to 84WA

Sunrise and sunset
Times for 30-Nov-2021
 Local
(UTC-8)
 Zulu
(UTC)
Morning civil twilight07:0415:04
Sunrise07:3815:38
Sunset16:2600:26
Evening civil twilight17:0101:01

Current date and time
Zulu (UTC)  30-Nov-2021 17:18:12
Local (UTC-8)  30-Nov-2021 09:18:12
 
METAR
KSHN 
19nm NE 
301703Z AUTO 23012G19KT 8SM -RA SCT014 SCT023 OVC030 11/09 A3017 RMK AO2 P0001 T01060089
KOLM 
20nm E 
301654Z 21009G16KT 10SM -RA FEW040 BKN050 OVC075 12/10 A3020 RMK AO2 RAB1558 SLP226 P0001 T01170100
KHQM 
22nm W 
301703Z AUTO 20012KT 4SM -RA BR BKN012 OVC024 12/10 A3019 RMK AO2 P0001 T01170100
KCLS 
24nm SE 
301635Z AUTO 00000KT 9SM -RA BKN037 BKN042 OVC060 13/12 A3023 RMK AO2
KGRF 
34nm E 
301658Z 18010KT 10SM -RA FEW011 SCT016 BKN023 OVC040 12/10 A3018 RMK AO2A SLP224 P0002 T01180104 $
KTIW 
37nm NE 
301653Z 22010KT 10SM BKN027 OVC044 10/10 A3018 RMK AO2 RAB03E50 SLP222 P0001 T01000100
TAF
KOLM 
20nm E 
301120Z 3012/0112 21009KT 6SM BR VCSH SCT006 BKN025 TEMPO 3012/3016 3SM -RA BR BKN005 OVC010 FM301600 21009KT 5SM -RA BR OVC010 FM302200 22008KT 5SM -RA OVC012 FM010700 21007KT 3SM BR VCSH OVC007
KHQM 
22nm W 
301450Z 3015/0112 18009KT P6SM -RA SCT015 OVC035 TEMPO 3015/3018 4SM -RA BR BKN015 OVC025 FM301800 18012KT 4SM -RA BR OVC015 FM302000 18013G22KT 4SM -RA BR OVC010 FM010600 17012G18KT 6SM BR VCSH BKN008 OVC015
NOTAMs
Click for the latest NOTAMs
NOTAMs are issued by the DoD/FAA and will open in a separate window not controlled by AirNav.

 

 
 

Would you like to see your business listed on this page?

 If your business provides an interesting product or service to pilots, flight crews, aircraft, or users of the D and B Airpark, you should consider listing it here.  To start the listing process, click on the button below
 
Add a business
 

Other Pages about D and B Airpark

Update a link
 
Copyright © AirNav, LLC. All rights reserved. Privacy Policy  Contact